Shenzhen Bao'an International Airport
ZGSZ : rendu visible

Aérodrome :











RETROUVEZ-NOUS SUR...

 
LOGIN :

S'inscrire | Disclaimer

   EN    FR    IT 

 









Légende :    VFR   VFR Marginal   IFR   IFR Intensif   IFR Très Intensif
Visi : 
Plafond : 
>= 8 km
>= 3000ft
5 à 8 km
1000 à 3000 ft
1500m à 5 km
500 à 1000 ft
800 à 1500m
200 à 500 ft
< 800m
< 200 ft
Symboles :   Orages  Brouillard  Fortes neiges  Fortes précipitations  Vent > 20 kt






- Altitude de l'aérodrome : 13 ft
- Code IATA : SZX


ZGSZ - Shenzhen Bao'an International

DERNIER METAR :
  • 240800Z 18002MPS 5000 BR BKN040 27/24 Q1007 NOSIG

METARs EXPIRÉS :
  • 240700Z 22002MPS 6000 BKN040 27/24 Q1007 NOSIG
  • 240600Z 21002MPS 2800 BR OVC033 28/24 Q1008 BECMG AT0630 3500
  • 240500Z 24002MPS 3500 BR FEW016 OVC040 27/24 Q1009 BECMG AT0530 2900
  • 240400Z 21002MPS 5000 BR FEW016 OVC040 27/24 Q1010 NOSIG

TAF TAF ZGSZ
Valide du 24 à 06h jusqu'au 25 à 06h UTC


240318Z 2406/2506 18004MPS 6000 BKN030 TX28/2406Z TN24/2422Z
TEMPO 2406/2412 SHRA FEW010 FEW025CB BKN030
TEMPO 2420/2424 SHRA FEW010 FEW025CB BKN030
TEMPO 2500/2506 TSRA SCT010 FEW020CB BKN030
FIR ZGZU / Asie



MET'MAP, la Météo Aéronautique d'un coup d'oeil ! - Copyright ORBIFLY Décembre 2007 - Disclaimer

ORBIFLY MET'MAP TEAM :

Programmation & Développement : Alexandra Zaïnal
Sur une idée originale de : Baudouin d'Aumeries
Soutien technique & logistique : Manuel Goepfert
Assistance : Marc-Olivier Méhu




SOURCES & CREDITS :

   NOAA       Earth
Advisory